Time;durP1;ratioP1;P1;durP2;ratioP2;P2;SDS_P1;SDS_P2;PMS_P1;PMS_P2;Temp;Humidity;BMP_temperature;BMP_pressure;BME280_temperature;BME280_humidity;BME280_pressure;Samples;Min_cycle;Max_cycle;Signal;HPM_P1;HPM_P2
2022/11/28 05:00:28;;;;;;;19.92;12.23;;;5.80;99.90;;;;;;5838890;23;20018;-67
2022/11/28 05:02:55;;;;;;;21.30;11.70;;;5.80;99.90;;;;;;4916031;29;20032;-68
2022/11/28 05:05:24;;;;;;;20.00;12.27;;;5.80;99.90;;;;;;4901133;29;20304;-68
2022/11/28 05:07:51;;;;;;;19.80;12.38;;;5.70;99.90;;;;;;4901864;29;20025;-69
2022/11/28 05:10:17;;;;;;;20.33;12.13;;;5.80;99.90;;;;;;4901601;29;20058;-69
2022/11/28 05:12:43;;;;;;;22.63;12.45;;;5.80;99.90;;;;;;4901721;29;20040;-68
2022/11/28 05:15:09;;;;;;;18.80;12.23;;;5.80;99.90;;;;;;4901489;29;20389;-70
2022/11/28 05:17:35;;;;;;;20.15;12.13;;;5.60;99.90;;;;;;4900352;29;20125;-69
2022/11/28 05:20:01;;;;;;;21.27;12.70;;;5.80;99.90;;;;;;4902178;29;20032;-70
2022/11/28 05:22:27;;;;;;;19.50;12.32;;;5.70;99.90;;;;;;4901093;29;20039;-67
2022/11/28 05:24:52;;;;;;;19.57;11.90;;;5.70;99.90;;;;;;4900128;29;20482;-70
2022/11/28 05:27:18;;;;;;;19.40;12.00;;;5.80;99.90;;;;;;4901715;29;20032;-69
2022/11/28 05:29:45;;;;;;;19.87;12.17;;;5.70;99.90;;;;;;4900683;29;20028;-69
2022/11/28 05:32:12;;;;;;;20.88;12.85;;;5.70;99.90;;;;;;4900845;29;20032;-70
2022/11/28 05:34:37;;;;;;;;;;;5.60;99.90;;;;;;4901391;29;20028;-69
2022/11/28 05:37:04;;;;;;;21.83;12.25;;;5.60;99.90;;;;;;4899358;29;19914;-69
2022/11/28 05:39:30;;;;;;;18.40;11.73;;;5.70;99.90;;;;;;4900625;29;20055;-70
2022/11/28 05:41:56;;;;;;;17.77;11.02;;;5.70;99.90;;;;;;4901993;29;20102;-67
2022/11/28 05:44:21;;;;;;;18.20;11.40;;;6.00;99.90;;;;;;4894886;29;20141;-67
2022/11/28 05:46:47;;;;;;;21.10;12.13;;;6.00;99.90;;;;;;4889365;29;20505;-66
2022/11/28 05:49:12;;;;;;;17.80;11.17;;;6.00;99.90;;;;;;4890318;29;20065;-65
2022/11/28 05:51:38;;;;;;;18.00;10.63;;;5.90;99.90;;;;;;4883017;29;20079;-71
2022/11/28 05:54:04;;;;;;;21.77;11.03;;;5.90;99.90;;;;;;4900915;29;20028;-71
2022/11/28 05:56:29;;;;;;;17.10;10.77;;;5.80;99.90;;;;;;4900919;29;20422;-70
2022/11/28 05:58:55;;;;;;;16.97;11.03;;;5.80;99.90;;;;;;4899122;29;20164;-69
2022/11/28 06:01:26;;;;;;;15.53;10.20;;;5.90;99.90;;;;;;4890772;29;20048;-67
2022/11/28 06:03:57;;;;;;;15.65;10.13;;;6.10;99.90;;;;;;4881915;29;20037;-67
2022/11/28 06:06:24;;;;;;;19.80;11.20;;;6.10;99.90;;;;;;4892266;29;20445;-70
2022/11/28 06:08:51;;;;;;;14.25;9.48;;;6.10;99.90;;;;;;4900954;29;20029;-70
2022/11/28 06:11:18;;;;;;;15.75;10.13;;;6.10;99.90;;;;;;4900863;29;20550;-71
2022/11/28 06:13:45;;;;;;;14.98;9.68;;;6.10;99.90;;;;;;4900502;29;20470;-71
2022/11/28 06:16:14;;;;;;;14.77;9.60;;;6.20;99.90;;;;;;4898616;29;20024;-71
2022/11/28 06:18:40;;;;;;;19.67;10.13;;;6.10;99.90;;;;;;4888604;29;20024;-71
2022/11/28 06:21:08;;;;;;;18.15;9.98;;;6.10;99.90;;;;;;4884064;29;20033;-73
2022/11/28 06:23:33;;;;;;;21.25;11.30;;;6.00;99.90;;;;;;4895232;29;20029;-70
2022/11/28 06:26:05;;;;;;;16.27;10.30;;;6.20;99.90;;;;;;4895551;29;20036;-71
2022/11/28 06:28:30;;;;;;;18.65;10.88;;;6.20;99.90;;;;;;4879780;29;20028;-71
2022/11/28 06:30:56;;;;;;;18.20;10.90;;;6.30;99.90;;;;;;4880177;29;20076;-72
2022/11/28 06:33:21;;;;;;;19.30;10.07;;;6.30;99.90;;;;;;4881391;29;20304;-71
2022/11/28 06:35:48;;;;;;;19.27;10.63;;;6.20;99.90;;;;;;4887267;29;20084;-72
2022/11/28 06:38:14;;;;;;;17.90;10.90;;;6.30;99.90;;;;;;4888247;29;20029;-72
2022/11/28 06:40:39;;;;;;;16.23;10.20;;;6.20;99.90;;;;;;4899840;29;20031;-72
2022/11/28 06:43:05;;;;;;;19.00;10.90;;;6.20;99.90;;;;;;4899328;29;20032;-71
2022/11/28 06:45:33;;;;;;;14.93;9.40;;;6.20;99.90;;;;;;4899885;29;20390;-69
2022/11/28 06:48:00;;;;;;;12.07;8.88;;;6.20;99.90;;;;;;4898954;29;20040;-71
2022/11/28 06:50:25;;;;;;;;;;;6.00;99.90;;;;;;4900530;29;20041;-71
2022/11/28 06:52:53;;;;;;;16.50;9.35;;;5.90;99.90;;;;;;4898146;29;19918;-72
2022/11/28 06:55:19;;;;;;;15.10;9.20;;;6.00;99.90;;;;;;4898428;29;20032;-71
2022/11/28 06:57:44;;;;;;;16.00;8.90;;;6.00;99.90;;;;;;4898078;29;20466;-70
2022/11/28 07:00:10;;;;;;;16.87;8.83;;;6.10;99.90;;;;;;4899551;29;20031;-72
2022/11/28 07:02:36;;;;;;;16.75;8.73;;;6.10;99.90;;;;;;4898309;29;20039;-71
2022/11/28 07:05:01;;;;;;;14.13;8.47;;;6.30;99.90;;;;;;4898238;29;20458;-71
2022/11/28 07:07:27;;;;;;;13.60;8.63;;;6.30;99.90;;;;;;4899489;29;20105;-71
2022/11/28 07:09:52;;;;;;;13.47;8.37;;;6.30;99.90;;;;;;4897811;29;20467;-71
2022/11/28 07:12:18;;;;;;;15.70;9.20;;;6.40;99.90;;;;;;4897741;29;20025;-70
2022/11/28 07:14:44;;;;;;;13.57;8.37;;;6.40;99.90;;;;;;4899338;29;20422;-71
2022/11/28 07:17:09;;;;;;;12.03;7.73;;;6.30;99.90;;;;;;4899715;29;20385;-71
2022/11/28 07:19:35;;;;;;;11.53;7.80;;;6.30;99.90;;;;;;4899431;29;20032;-71
2022/11/28 07:22:00;;;;;;;13.90;8.20;;;6.40;99.90;;;;;;4898905;29;20098;-70
2022/11/28 07:24:26;;;;;;;12.30;8.43;;;6.50;99.90;;;;;;4899405;29;20032;-71
2022/11/28 07:26:52;;;;;;;14.70;8.70;;;6.50;99.90;;;;;;4899355;29;20410;-71
2022/11/28 07:29:18;;;;;;;14.77;8.17;;;6.40;99.90;;;;;;4898009;29;20080;-70
2022/11/28 07:31:44;;;;;;;11.18;7.53;;;6.50;99.90;;;;;;4898061;29;20029;-71
2022/11/28 07:34:10;;;;;;;12.65;8.02;;;6.50;99.90;;;;;;4899917;29;20035;-72
2022/11/28 07:36:36;;;;;;;12.43;7.47;;;6.60;99.90;;;;;;4900452;29;20029;-71
2022/11/28 07:39:04;;;;;;;12.80;7.60;;;6.60;99.90;;;;;;4899858;29;20036;-71
2022/11/28 07:41:30;;;;;;;15.10;7.20;;;6.60;99.90;;;;;;4899018;29;20056;-72
2022/11/28 07:44:00;;;;;;;19.58;7.72;;;6.70;99.90;;;;;;4897651;29;20039;-72
2022/11/28 07:46:28;;;;;;;11.95;7.50;;;6.60;99.90;;;;;;4898103;29;20057;-71
2022/11/28 07:48:54;;;;;;;13.32;7.80;;;6.60;99.90;;;;;;4897678;29;20028;-71
2022/11/28 07:51:22;;;;;;;14.07;6.93;;;6.70;99.90;;;;;;4898607;29;20060;-71
2022/11/28 07:53:47;;;;;;;15.43;7.90;;;6.60;99.90;;;;;;4897425;29;20116;-70
2022/11/28 07:56:16;;;;;;;12.03;6.93;;;6.60;99.90;;;;;;4899112;29;20024;-70
2022/11/28 07:58:43;;;;;;;12.27;7.15;;;6.70;99.90;;;;;;4897801;29;20025;-71
2022/11/28 08:01:14;;;;;;;13.85;7.95;;;6.80;99.90;;;;;;4899299;29;20041;-71
2022/11/28 08:03:39;;;;;;;16.95;7.45;;;6.70;99.90;;;;;;4897560;29;20040;-71
2022/11/28 08:06:06;;;;;;;13.17;6.67;;;6.70;99.90;;;;;;4898593;29;20029;-71
2022/11/28 08:08:32;;;;;;;13.43;7.57;;;6.60;99.90;;;;;;4897781;29;20047;-71
2022/11/28 08:10:59;;;;;;;17.43;8.10;;;6.50;99.90;;;;;;4899116;29;20423;-72
2022/11/28 08:13:25;;;;;;;16.60;7.32;;;6.60;99.90;;;;;;4899105;29;20734;-72
2022/11/28 08:15:51;;;;;;;15.97;7.23;;;6.60;99.90;;;;;;4897317;29;20028;-72
2022/11/28 08:18:16;;;;;;;19.83;8.20;;;6.70;99.90;;;;;;4898622;29;20276;-73
2022/11/28 08:20:42;;;;;;;14.77;7.47;;;6.60;99.90;;;;;;4899383;29;20029;-71
2022/11/28 08:23:07;;;;;;;15.00;7.33;;;6.60;99.90;;;;;;4902952;29;20502;-71
2022/11/28 08:25:33;;;;;;;13.20;7.73;;;6.80;99.90;;;;;;4902916;29;20156;-72
2022/11/28 08:27:59;;;;;;;18.63;8.27;;;6.70;99.90;;;;;;4902461;29;20058;-71
2022/11/28 08:30:25;;;;;;;15.23;7.57;;;6.70;99.90;;;;;;4901841;29;20036;-71
2022/11/28 08:32:50;;;;;;;14.87;7.83;;;6.80;99.90;;;;;;4902681;29;20064;-72
2022/11/28 08:35:16;;;;;;;12.90;8.00;;;6.80;99.90;;;;;;4904221;29;20279;-71
2022/11/28 08:37:42;;;;;;;15.18;8.00;;;6.90;99.90;;;;;;4903717;29;20044;-72
2022/11/28 08:40:08;;;;;;;15.60;9.03;;;7.00;99.90;;;;;;4902508;29;20035;-72
2022/11/28 08:42:34;;;;;;;12.50;7.75;;;7.00;99.90;;;;;;4902750;29;20064;-71
2022/11/28 08:44:59;;;;;;;13.52;8.20;;;7.00;99.90;;;;;;4902386;29;20036;-72
2022/11/28 08:47:25;;;;;;;12.90;7.83;;;7.20;99.90;;;;;;4901544;29;20024;-71
2022/11/28 08:49:50;;;;;;;17.57;8.67;;;7.10;99.90;;;;;;4902862;29;20029;-71
2022/11/28 08:52:16;;;;;;;11.93;7.23;;;7.10;99.90;;;;;;4901337;29;20498;-71
2022/11/28 08:54:42;;;;;;;14.38;7.35;;;7.10;99.90;;;;;;4902871;29;20218;-71
2022/11/28 08:57:07;;;;;;;13.80;7.60;;;7.00;99.90;;;;;;4905006;29;20033;-72
2022/11/28 08:59:33;;;;;;;14.03;7.87;;;7.10;99.90;;;;;;4902137;29;20031;-70
2022/11/28 09:01:58;;;;;;;23.47;9.30;;;7.20;99.90;;;;;;4902371;29;20449;-72
2022/11/28 09:04:24;;;;;;;15.00;7.77;;;7.20;99.90;;;;;;4901200;29;20561;-71
2022/11/28 09:06:51;;;;;;;11.70;7.80;;;7.20;99.90;;;;;;4902458;29;20028;-71
2022/11/28 09:09:17;;;;;;;13.77;7.80;;;7.40;99.90;;;;;;4903948;29;20103;-71
2022/11/28 09:11:43;;;;;;;13.45;7.80;;;7.30;99.90;;;;;;4902433;29;20052;-71
2022/11/28 09:14:09;;;;;;;13.75;7.78;;;7.40;99.90;;;;;;4900068;29;20509;-71
2022/11/28 09:16:36;;;;;;;16.07;8.20;;;7.40;99.90;;;;;;4901691;29;20053;-70
2022/11/28 09:19:02;;;;;;;14.45;8.02;;;7.70;99.90;;;;;;4901613;29;20276;-71
2022/11/28 09:21:27;;;;;;;17.60;8.68;;;7.50;99.90;;;;;;4916275;29;20025;-72
2022/11/28 09:23:54;;;;;;;15.93;8.37;;;7.50;99.90;;;;;;4902704;29;20215;-71
2022/11/28 09:26:23;;;;;;;14.18;8.07;;;7.30;99.90;;;;;;4905804;29;20068;-72
2022/11/28 09:28:49;;;;;;;16.05;8.30;;;7.30;99.90;;;;;;4907454;29;20040;-71
2022/11/28 09:31:16;;;;;;;16.13;8.68;;;7.50;99.90;;;;;;4901928;29;20047;-71
2022/11/28 09:33:42;;;;;;;16.88;8.18;;;7.60;99.90;;;;;;4900777;29;20114;-71
2022/11/28 09:36:11;;;;;;;14.13;8.27;;;7.60;99.90;;;;;;4900450;29;20039;-71
2022/11/28 09:38:37;;;;;;;11.38;7.75;;;7.60;99.90;;;;;;4903532;29;20032;-71
2022/11/28 09:41:16;;;;;;;11.15;7.47;;;7.40;99.90;;;;;;4904580;29;20104;-71
2022/11/28 09:43:43;;;;;;;16.13;8.00;;;7.50;99.90;;;;;;4903081;29;20040;-72
2022/11/28 09:46:24;;;;;;;14.70;8.13;;;7.30;99.90;;;;;;4903835;29;20028;-71
2022/11/28 09:48:54;;;;;;;11.90;7.43;;;7.50;99.90;;;;;;4903230;29;20032;-72
2022/11/28 09:51:51;;;;;;;12.82;7.43;;;7.60;99.90;;;;;;4902072;29;20051;-72
2022/11/28 09:54:24;;;;;;;15.03;8.53;;;7.70;99.90;;;;;;4901313;29;20037;-72
2022/11/28 09:56:51;;;;;;;12.43;8.38;;;7.40;99.90;;;;;;4902432;29;20017;-71
2022/11/28 09:59:24;;;;;;;17.98;8.23;;;7.40;99.90;;;;;;4905556;29;20509;-72
2022/11/28 10:02:14;;;;;;;13.27;7.50;;;7.50;99.90;;;;;;4910036;29;20036;-72
2022/11/28 10:05:12;;;;;;;15.68;7.75;;;7.60;99.90;;;;;;4903610;29;20494;-71
2022/11/28 10:07:49;;;;;;;14.60;7.78;;;7.40;99.90;;;;;;4906118;29;20036;-71
2022/11/28 10:10:25;;;;;;;14.10;7.30;;;7.40;99.90;;;;;;4907465;29;20024;-71
2022/11/28 10:13:18;;;;;;;13.52;7.15;;;7.60;99.90;;;;;;4907302;29;20029;-71
2022/11/28 10:16:19;;;;;;;12.95;7.25;;;7.50;99.90;;;;;;4906249;29;20474;-71
2022/11/28 10:18:59;;;;;;;13.95;7.45;;;7.70;99.90;;;;;;4825361;29;20078;-71
2022/11/28 10:21:55;;;;;;;11.15;7.55;;;7.80;99.90;;;;;;4888950;29;20037;-71
2022/11/28 10:24:36;;;;;;;11.90;7.57;;;7.70;99.90;;;;;;4825668;29;20046;-71
2022/11/28 10:27:04;;;;;;;14.32;8.10;;;7.90;99.90;;;;;;4825043;29;20038;-71
2022/11/28 10:29:47;;;;;;;11.68;8.23;;;7.80;99.90;;;;;;4825212;29;20573;-71
2022/11/28 10:32:17;;;;;;;13.60;7.80;;;7.80;99.90;;;;;;4809118;29;20038;-71
2022/11/28 10:34:52;;;;;;;12.63;8.02;;;7.80;99.90;;;;;;4824529;29;20047;-71
2022/11/28 10:37:27;;;;;;;11.55;7.32;;;7.80;99.90;;;;;;4808891;29;20064;-71
2022/11/28 10:39:54;;;;;;;14.43;7.90;;;7.90;99.90;;;;;;4824323;29;20037;-70
2022/11/28 10:42:40;;;;;;;14.85;8.82;;;8.00;99.90;;;;;;4809122;29;20061;-71
2022/11/28 10:45:17;;;;;;;11.27;7.22;;;8.20;99.90;;;;;;4808569;29;20393;-71
2022/11/28 10:48:01;;;;;;;14.68;7.70;;;8.30;99.90;;;;;;4809059;29;20060;-71
2022/11/28 10:50:51;;;;;;;15.52;7.85;;;8.20;99.90;;;;;;4824696;29;20034;-71
2022/11/28 10:53:35;;;;;;;15.18;7.88;;;8.30;99.90;;;;;;4824088;29;20400;-70
2022/11/28 10:56:16;;;;;;;17.45;7.93;;;8.20;99.90;;;;;;4824593;29;20127;-72
2022/11/28 10:59:09;;;;;;;12.68;7.25;;;8.20;99.90;;;;;;4824409;29;20154;-72
2022/11/28 11:01:38;;;;;;;12.43;7.47;;;8.20;99.90;;;;;;4873365;29;20041;-71
2022/11/28 11:04:04;;;;;;;13.18;7.72;;;8.20;99.90;;;;;;4881736;29;20033;-71
2022/11/28 11:06:30;;;;;;;;;;;8.40;99.90;;;;;;4899226;29;20035;-71
2022/11/28 11:08:55;;;;;;;15.93;7.93;;;8.40;99.90;;;;;;4899820;29;19908;-71
2022/11/28 11:11:30;;;;;;;15.23;7.47;;;8.40;99.90;;;;;;4900421;29;20394;-71
2022/11/28 11:14:08;;;;;;;13.73;7.30;;;8.50;99.90;;;;;;4899320;29;20025;-71
2022/11/28 11:16:51;;;;;;;;;;;8.60;99.90;;;;;;4900153;29;20039;-73
2022/11/28 11:19:29;;;;;;;11.57;6.68;;;8.60;99.90;;;;;;4898094;29;20002;-72
2022/11/28 11:22:13;;;;;;;11.50;7.15;;;8.80;99.90;;;;;;4897745;29;20029;-73
2022/11/28 11:24:39;;;;;;;11.23;6.18;;;8.80;99.90;;;;;;4898132;29;20033;-73
2022/11/28 11:27:18;;;;;;;11.47;7.77;;;8.80;99.90;;;;;;4899451;29;20033;-74
2022/11/28 11:29:44;;;;;;;12.90;7.93;;;8.60;99.90;;;;;;4899251;29;20028;-73
2022/11/28 11:32:22;;;;;;;12.02;7.90;;;8.60;99.90;;;;;;4897833;29;20029;-72
2022/11/28 11:34:48;;;;;;;13.82;7.47;;;8.60;99.90;;;;;;4899237;29;20397;-73
2022/11/28 11:37:31;;;;;;;11.48;7.47;;;8.60;99.90;;;;;;4899420;29;20514;-73
2022/11/28 11:39:58;;;;;;;11.90;7.57;;;8.80;99.90;;;;;;4899120;29;20028;-73
2022/11/28 11:42:27;;;;;;;12.57;7.40;;;8.80;99.90;;;;;;4897555;29;20498;-73
2022/11/28 11:44:52;;;;;;;12.75;7.80;;;8.90;99.90;;;;;;4897489;29;20032;-73
2022/11/28 11:47:18;;;;;;;11.90;7.63;;;8.90;99.90;;;;;;4897461;29;20119;-73
2022/11/28 11:49:48;;;;;;;13.73;7.97;;;8.90;99.90;;;;;;4898653;29;20044;-72
2022/11/28 11:52:14;;;;;;;12.77;7.63;;;9.00;99.90;;;;;;4898921;29;20040;-73
2022/11/28 11:54:52;;;;;;;12.93;7.87;;;9.00;99.90;;;;;;4898688;29;20029;-73
2022/11/28 11:57:21;;;;;;;13.88;7.75;;;9.10;99.90;;;;;;4897069;29;20020;-73
2022/11/28 12:00:00;;;;;;;13.63;7.70;;;9.10;99.90;;;;;;4897249;29;20033;-73
2022/11/28 12:02:44;;;;;;;13.15;8.05;;;9.20;99.90;;;;;;4896913;29;20435;-73
2022/11/28 12:05:26;;;;;;;11.27;7.53;;;9.20;99.90;;;;;;4914053;29;20021;-73
2022/11/28 12:07:57;;;;;;;14.00;7.57;;;9.30;99.90;;;;;;4903816;29;20024;-71
2022/11/28 12:10:33;;;;;;;11.10;6.93;;;9.30;99.90;;;;;;4896936;29;20104;-71
2022/11/28 12:13:00;;;;;;;11.40;7.47;;;9.30;99.90;;;;;;4891592;29;20064;-71
2022/11/28 12:15:44;;;;;;;12.50;7.18;;;9.10;99.90;;;;;;4887055;29;20057;-72
2022/11/28 12:18:28;;;;;;;11.75;7.20;;;9.20;99.90;;;;;;4899151;29;20032;-70
2022/11/28 12:20:56;;;;;;;11.43;7.03;;;9.40;99.90;;;;;;4899137;29;20025;-69
2022/11/28 12:23:56;;;;;;;10.35;7.97;;;9.30;99.90;;;;;;4881392;29;20033;-72
2022/11/28 12:26:45;;;;;;;10.85;7.15;;;9.30;99.90;;;;;;4881177;29;20094;-72
2022/11/28 12:29:28;;;;;;;11.20;7.32;;;9.30;99.90;;;;;;4880069;29;20055;-71
2022/11/28 12:32:35;;;;;;;13.52;7.45;;;9.40;99.90;;;;;;4889077;29;20043;-71
2022/11/28 12:35:18;;;;;;;13.20;6.97;;;9.50;99.90;;;;;;4844475;29;20125;-72
2022/11/28 12:38:12;;;;;;;13.15;7.25;;;9.30;99.90;;;;;;4858527;29;20046;-72
2022/11/28 12:41:04;;;;;;;11.30;6.85;;;9.40;99.90;;;;;;4843689;29;20097;-69
2022/11/28 12:43:59;;;;;;;17.05;7.78;;;9.30;99.90;;;;;;4859117;29;20083;-68
2022/11/28 12:46:30;;;;;;;10.60;7.13;;;9.20;99.90;;;;;;4859062;29;20030;-71
2022/11/28 12:49:05;;;;;;;10.80;6.78;;;9.40;99.90;;;;;;4858906;29;20200;-71
2022/11/28 12:51:49;;;;;;;9.48;6.30;;;9.50;99.90;;;;;;4858733;29;20044;-71
2022/11/28 12:54:43;;;;;;;11.68;6.93;;;9.40;99.90;;;;;;4858622;29;20044;-71
2022/11/28 12:57:22;;;;;;;10.40;7.07;;;9.40;99.90;;;;;;4843579;29;20137;-73
2022/11/28 12:59:58;;;;;;;17.92;9.35;;;9.40;99.90;;;;;;4843354;29;20122;-72
2022/11/28 13:02:44;;;;;;;14.07;7.90;;;9.60;99.90;;;;;;4858217;29;20033;-73
2022/11/28 13:05:29;;;;;;;11.32;7.05;;;9.80;99.90;;;;;;4858892;29;20042;-71
2022/11/28 13:07:57;;;;;;;14.55;7.25;;;10.00;99.90;;;;;;4858218;29;20037;-73
2022/11/28 13:10:33;;;;;;;11.27;6.80;;;9.90;99.90;;;;;;4869799;29;20037;-72
2022/11/28 13:13:40;;;;;;;10.77;6.45;;;9.90;99.90;;;;;;4881399;29;20076;-73
2022/11/28 13:16:28;;;;;;;15.75;7.32;;;9.90;99.90;;;;;;4807335;29;20055;-72
2022/11/28 13:18:59;;;;;;;16.70;8.48;;;9.90;99.90;;;;;;4805457;29;20058;-67
2022/11/28 13:21:58;;;;;;;15.27;7.32;;;9.70;99.90;;;;;;4825257;29;20038;-69
2022/11/28 13:24:45;;;;;;;10.95;7.10;;;9.70;99.90;;;;;;4824892;29;20046;-73
2022/11/28 13:27:35;;;;;;;13.75;7.15;;;9.80;99.90;;;;;;4825493;29;20049;-74
2022/11/28 13:30:12;;;;;;;13.07;7.50;;;9.70;99.90;;;;;;4809917;29;20034;-72
2022/11/28 13:32:44;;;;;;;;;;;9.80;99.90;;;;;;4809502;29;20034;-73
2022/11/28 13:35:14;;;;;;;13.57;7.35;;;9.80;99.90;;;;;;4825015;29;19982;-72
2022/11/28 13:37:46;;;;;;;12.85;7.68;;;9.80;99.90;;;;;;4807065;29;20030;-72
2022/11/28 13:40:33;;;;;;;13.23;7.53;;;9.80;99.90;;;;;;4821798;29;20374;-72
2022/11/28 13:43:09;;;;;;;15.50;7.63;;;9.80;99.90;;;;;;4809746;29;20030;-72
2022/11/28 13:45:40;;;;;;;26.60;13.63;;;9.60;99.90;;;;;;4808938;29;20030;-72
2022/11/28 13:48:33;;;;;;;18.08;7.15;;;9.70;99.90;;;;;;4896504;29;20033;-72
2022/11/28 13:51:11;;;;;;;12.10;7.20;;;9.80;99.90;;;;;;4892964;29;20109;-72
2022/11/28 13:53:37;;;;;;;12.02;6.97;;;9.70;99.90;;;;;;4899171;29;20505;-72
2022/11/28 13:56:06;;;;;;;21.92;8.25;;;10.00;99.90;;;;;;4899323;29;20039;-73
2022/11/28 13:58:31;;;;;;;16.85;7.05;;;10.10;99.90;;;;;;4901007;29;20049;-72
2022/11/28 14:01:13;;;;;;;15.33;6.50;;;10.10;99.90;;;;;;4899584;29;20084;-72
2022/11/28 14:03:51;;;;;;;17.45;6.85;;;10.10;99.90;;;;;;4900961;29;20096;-73
2022/11/28 14:06:43;;;;;;;12.43;6.70;;;10.10;99.90;;;;;;4900687;29;20099;-74
2022/11/28 14:09:15;;;;;;;14.00;6.72;;;10.20;99.90;;;;;;4879096;29;20048;-73
2022/11/28 14:11:59;;;;;;;11.05;6.18;;;10.30;99.90;;;;;;4881949;29;20044;-72
2022/11/28 14:14:27;;;;;;;12.10;6.80;;;10.30;99.90;;;;;;4880461;29;20092;-73
2022/11/28 14:17:19;;;;;;;12.73;6.30;;;10.20;99.90;;;;;;4881854;29;20029;-73
2022/11/28 14:19:48;;;;;;;13.25;6.57;;;10.30;99.90;;;;;;4880382;29;20127;-72
2022/11/28 14:22:42;;;;;;;20.17;10.32;;;10.30;99.90;;;;;;4884704;29;20032;-72
2022/11/28 14:25:17;;;;;;;14.32;7.07;;;10.30;99.90;;;;;;4892990;29;20044;-72
2022/11/28 14:27:53;;;;;;;10.88;6.57;;;10.10;99.90;;;;;;4899415;29;20235;-73
2022/11/28 14:30:33;;;;;;;16.38;8.88;;;10.00;99.90;;;;;;4893806;29;20032;-72
2022/11/28 14:33:04;;;;;;;12.10;7.25;;;9.90;99.90;;;;;;4900323;29;20048;-71
2022/11/28 14:36:04;;;;;;;12.75;6.75;;;9.70;99.90;;;;;;4895787;29;20037;-67
2022/11/28 14:38:30;;;;;;;9.60;6.45;;;9.60;99.90;;;;;;4885761;29;20416;-68
2022/11/28 14:40:56;;;;;;;11.40;6.73;;;9.50;99.90;;;;;;4897214;29;20079;-73
2022/11/28 14:43:26;;;;;;;12.93;6.80;;;9.50;99.90;;;;;;4899876;29;20088;-72
2022/11/28 14:46:11;;;;;;;13.18;7.25;;;9.70;99.90;;;;;;4898345;29;20037;-71
2022/11/28 14:48:40;;;;;;;13.85;6.90;;;9.60;99.90;;;;;;4894378;29;20501;-71
2022/11/28 14:51:06;;;;;;;11.13;6.55;;;9.50;99.90;;;;;;4897467;29;20029;-71
2022/11/28 14:53:44;;;;;;;13.82;7.75;;;9.40;99.90;;;;;;4898383;29;20027;-70
2022/11/28 14:56:12;;;;;;;11.10;6.82;;;9.40;99.90;;;;;;4898519;29;20487;-71
2022/11/28 14:58:38;;;;;;;14.55;7.30;;;9.30;99.90;;;;;;4897316;29;20028;-71
2022/11/28 15:01:13;;;;;;;12.60;7.35;;;9.30;99.90;;;;;;4898339;29;20043;-72
2022/11/28 15:03:55;;;;;;;14.13;6.93;;;9.30;99.90;;;;;;4899027;29;20029;-71
2022/11/28 15:06:27;;;;;;;12.18;7.45;;;9.30;99.90;;;;;;4898325;29;20033;-71
2022/11/28 15:09:19;;;;;;;13.55;8.23;;;9.30;99.90;;;;;;4899081;29;20168;-71
2022/11/28 15:12:16;;;;;;;12.18;6.90;;;9.20;99.90;;;;;;4913589;29;20064;-71
2022/11/28 15:14:46;;;;;;;14.75;7.80;;;9.20;99.90;;;;;;4898994;29;20031;-73
2022/11/28 15:17:13;;;;;;;9.50;6.57;;;9.10;99.90;;;;;;4897639;29;20052;-72
2022/11/28 15:19:43;;;;;;;12.57;6.95;;;9.20;99.90;;;;;;4899455;29;20084;-73
2022/11/28 15:22:30;;;;;;;11.50;7.18;;;9.10;99.90;;;;;;4898988;29;20025;-69
2022/11/28 15:24:55;;;;;;;9.40;6.40;;;9.00;99.90;;;;;;4899288;29;20482;-71
2022/11/28 15:27:24;;;;;;;14.20;7.50;;;8.90;99.90;;;;;;4897979;29;20087;-71
2022/11/28 15:29:55;;;;;;;11.32;6.93;;;8.90;99.90;;;;;;4890549;29;20044;-70
2022/11/28 15:32:22;;;;;;;13.82;7.75;;;8.80;99.90;;;;;;4889384;29;20517;-69
2022/11/28 15:35:06;;;;;;;;;;;8.80;99.90;;;;;;4898563;29;20028;-70
2022/11/28 15:37:33;;;;;;;13.15;7.15;;;8.70;99.90;;;;;;4899168;29;19958;-70
2022/11/28 15:40:03;;;;;;;13.63;7.90;;;8.70;99.90;;;;;;4897586;29;20025;-73
2022/11/28 15:42:34;;;;;;;14.07;8.85;;;8.70;99.90;;;;;;4898978;29;20088;-70
2022/11/28 15:45:04;;;;;;;13.00;7.72;;;8.70;99.90;;;;;;4897459;29;20036;-70
2022/11/28 15:47:30;;;;;;;11.70;7.97;;;8.70;99.90;;;;;;4899357;29;20029;-70
2022/11/28 15:50:08;;;;;;;15.10;8.38;;;8.60;99.90;;;;;;4898700;29;20124;-70
2022/11/28 15:52:34;;;;;;;12.32;7.78;;;8.70;99.90;;;;;;4906462;29;20034;-74
2022/11/28 15:54:59;;;;;;;13.17;8.17;;;8.80;99.90;;;;;;4910403;29;20529;-73
2022/11/28 15:57:27;;;;;;;12.33;8.17;;;8.70;99.90;;;;;;4906845;29;20021;-70
2022/11/28 15:59:56;;;;;;;15.70;8.15;;;8.60;99.90;;;;;;4900646;29;20032;-69
2022/11/28 16:02:27;;;;;;;12.75;8.35;;;8.60;99.90;;;;;;4899266;29;20051;-68
2022/11/28 16:05:02;;;;;;;14.18;8.00;;;8.50;99.90;;;;;;4894019;29;20044;-68
2022/11/28 16:07:28;;;;;;;14.45;8.10;;;8.40;99.90;;;;;;4888637;29;20051;-68
2022/11/28 16:10:04;;;;;;;14.60;7.83;;;8.40;99.90;;;;;;4897648;29;20478;-70
2022/11/28 16:12:30;;;;;;;15.40;8.80;;;8.40;99.90;;;;;;4898541;29;20567;-68
2022/11/28 16:15:00;;;;;;;12.90;8.02;;;8.40;99.90;;;;;;4897193;29;20036;-70
2022/11/28 16:17:30;;;;;;;16.20;9.43;;;8.50;99.90;;;;;;4899020;29;20035;-71
2022/11/28 16:19:57;;;;;;;14.23;9.07;;;8.50;99.90;;;;;;4898568;29;20029;-70
2022/11/28 16:22:35;;;;;;;14.98;8.93;;;8.40;99.90;;;;;;4898217;29;20032;-70
2022/11/28 16:25:21;;;;;;;17.92;9.30;;;8.40;99.90;;;;;;4898326;29;20405;-69
2022/11/28 16:27:51;;;;;;;15.45;8.80;;;8.40;99.90;;;;;;4897589;29;20036;-70
2022/11/28 16:30:26;;;;;;;15.00;8.93;;;8.40;99.90;;;;;;4898620;29;20060;-71
2022/11/28 16:32:54;;;;;;;14.55;8.90;;;8.40;99.90;;;;;;4896926;29;20039;-71
2022/11/28 16:35:29;;;;;;;14.90;9.43;;;8.30;99.90;;;;;;4897117;29;20057;-71
2022/11/28 16:38:21;;;;;;;20.02;11.10;;;8.40;99.90;;;;;;4893361;29;20033;-70
2022/11/28 16:40:47;;;;;;;14.32;9.35;;;8.30;99.90;;;;;;4878153;29;20025;-70
2022/11/28 16:43:28;;;;;;;15.73;9.65;;;8.40;99.90;;;;;;4881302;29;20033;-73
2022/11/28 16:46:02;;;;;;;16.65;9.15;;;8.30;99.90;;;;;;4883720;29;20407;-73
2022/11/28 16:48:34;;;;;;;19.65;9.40;;;8.40;99.90;;;;;;4882919;29;20033;-70
2022/11/28 16:51:11;;;;;;;16.45;10.15;;;8.40;99.90;;;;;;4883795;29;20053;-69
2022/11/28 16:53:39;;;;;;;16.20;9.55;;;8.30;99.90;;;;;;4883170;29;20032;-68
2022/11/28 16:56:40;;;;;;;27.08;17.08;;;8.30;99.90;;;;;;4883762;29;20116;-69
2022/11/28 16:59:11;;;;;;;18.58;9.50;;;8.40;99.90;;;;;;4883667;29;20486;-68
2022/11/28 17:01:38;;;;;;;17.08;9.90;;;8.40;99.90;;;;;;4882279;29;20064;-68
2022/11/28 17:04:04;;;;;;;16.33;10.00;;;8.40;99.90;;;;;;4883128;29;20037;-68
2022/11/28 17:06:35;;;;;;;17.15;10.00;;;8.40;99.90;;;;;;4883276;29;20029;-69
2022/11/28 17:09:08;;;;;;;17.02;9.50;;;8.40;99.90;;;;;;4901996;29;20029;-68
2022/11/28 17:11:35;;;;;;;17.60;9.75;;;8.40;99.90;;;;;;4901686;29;20123;-69
2022/11/28 17:14:04;;;;;;;13.68;9.77;;;8.30;99.90;;;;;;4900408;29;20028;-68
2022/11/28 17:16:35;;;;;;;14.75;9.27;;;8.30;99.90;;;;;;4902279;29;20482;-68
2022/11/28 17:19:01;;;;;;;19.30;11.77;;;8.30;99.90;;;;;;4902063;29;20020;-70
2022/11/28 17:21:36;;;;;;;16.80;10.80;;;8.30;99.90;;;;;;4900726;29;20027;-71
2022/11/28 17:24:01;;;;;;;17.20;10.73;;;8.30;99.90;;;;;;4901765;29;20036;-74
2022/11/28 17:26:27;;;;;;;17.23;10.02;;;8.30;99.90;;;;;;4902017;29;20025;-69
2022/11/28 17:28:53;;;;;;;18.85;10.27;;;8.40;99.90;;;;;;4902157;29;20036;-70
2022/11/28 17:31:20;;;;;;;16.80;10.48;;;8.60;99.90;;;;;;4901617;29;20035;-71
2022/11/28 17:33:46;;;;;;;17.88;11.25;;;8.80;99.90;;;;;;4900596;29;20040;-71
2022/11/28 17:36:12;;;;;;;21.33;13.35;;;8.80;99.90;;;;;;4902177;29;20025;-71
2022/11/28 17:38:37;;;;;;;18.93;11.03;;;8.60;99.90;;;;;;4901578;29;20036;-73
2022/11/28 17:41:04;;;;;;;26.20;12.13;;;8.50;99.90;;;;;;4900594;29;20269;-72
2022/11/28 17:43:30;;;;;;;17.63;12.20;;;8.30;99.90;;;;;;4900673;29;20028;-73
2022/11/28 17:45:56;;;;;;;22.58;14.43;;;8.20;99.90;;;;;;4903481;29;20064;-72
2022/11/28 17:48:22;;;;;;;89.37;51.67;;;8.30;99.90;;;;;;4901859;29;20028;-73
2022/11/28 17:50:49;;;;;;;160.45;80.00;;;8.40;99.90;;;;;;4901843;29;20039;-72
2022/11/28 17:53:17;;;;;;;29.00;18.83;;;8.50;99.90;;;;;;4900133;29;20032;-72
2022/11/28 17:55:44;;;;;;;47.10;24.73;;;8.40;99.90;;;;;;4900157;29;20048;-72
2022/11/28 17:58:19;;;;;;;100.65;68.32;;;8.30;99.90;;;;;;4900541;29;20028;-75
2022/11/28 18:00:45;;;;;;;23.70;15.13;;;8.30;99.90;;;;;;4900509;29;20032;-73
2022/11/28 18:03:12;;;;;;;24.00;15.43;;;8.30;99.90;;;;;;4900870;29;20025;-73
2022/11/28 18:05:43;;;;;;;23.25;15.60;;;8.30;99.90;;;;;;4901524;29;20028;-72
2022/11/28 18:08:09;;;;;;;29.33;15.63;;;8.40;99.90;;;;;;4901638;29;20057;-72
2022/11/28 18:10:35;;;;;;;25.23;14.00;;;8.50;99.90;;;;;;4901279;29;20454;-71